createdAt,value
2018-06-06T00:00:00.986Z,14.62
2018-06-06T00:01:00.999Z,14.61
2018-06-06T00:02:01.025Z,14.68
2018-06-06T00:03:01.056Z,14.62
2018-06-06T00:04:01.065Z,14.55
2018-06-06T00:05:01.090Z,14.58
2018-06-06T00:06:01.104Z,14.59
2018-06-06T00:07:01.130Z,14.66
2018-06-06T00:08:01.154Z,14.51
2018-06-06T00:09:01.168Z,14.63
2018-06-06T00:10:01.195Z,14.61
2018-06-06T00:11:01.208Z,14.66
2018-06-06T00:12:01.234Z,14.58
2018-06-06T00:13:01.249Z,14.53
2018-06-06T00:14:01.274Z,14.56
2018-06-06T00:15:01.301Z,14.61
2018-06-06T00:16:01.312Z,14.55
2018-06-06T00:17:01.340Z,14.52
2018-06-06T00:18:01.353Z,14.56
2018-06-06T00:19:01.379Z,14.53
2018-06-06T00:20:01.404Z,14.53
2018-06-06T00:21:01.419Z,14.44
2018-06-06T00:22:01.443Z,14.52
2018-06-06T00:23:01.457Z,14.49
2018-06-06T00:24:01.483Z,14.41
2018-06-06T00:25:01.498Z,14.41
2018-06-06T00:26:01.523Z,14.45
2018-06-06T00:27:01.547Z,14.45
2018-06-06T00:28:01.562Z,14.41
2018-06-06T00:29:01.587Z,14.41
2018-06-06T00:30:01.602Z,14.30
2018-06-06T00:31:01.628Z,14.45
2018-06-06T00:32:01.642Z,14.36
2018-06-06T00:33:01.666Z,14.30
2018-06-06T00:34:01.693Z,14.44
2018-06-06T00:35:01.718Z,14.36
2018-06-06T00:36:01.782Z,14.34
2018-06-06T00:37:01.745Z,14.31
2018-06-06T00:38:01.771Z,14.36
2018-06-06T00:39:01.788Z,14.22
2018-06-06T00:40:01.811Z,14.30
2018-06-06T00:41:01.837Z,14.22
2018-06-06T00:42:01.851Z,14.22
2018-06-06T00:43:01.890Z,14.20
2018-06-06T00:44:01.889Z,14.19
2018-06-06T00:45:01.916Z,14.22
2018-06-06T00:46:01.937Z,14.28
2018-06-06T00:47:01.962Z,14.25
2018-06-06T00:48:01.984Z,14.25
2018-06-06T00:49:02.006Z,14.22
2018-06-06T00:50:02.033Z,14.23
2018-06-06T00:51:02.034Z,14.22
2018-06-06T00:52:02.060Z,14.11
2018-06-06T00:53:02.323Z,14.16
2018-06-06T00:54:02.098Z,14.13
2018-06-06T00:55:02.124Z,14.15
2018-06-06T00:56:02.139Z,14.11
2018-06-06T00:57:02.165Z,14.20
2018-06-06T00:58:02.177Z,14.11
2018-06-06T00:59:02.203Z,14.15
2018-06-06T01:00:02.216Z,14.08
2018-06-06T01:01:02.244Z,14.12
2018-06-06T01:02:02.258Z,14.07
2018-06-06T01:03:02.294Z,14.08
2018-06-06T01:04:02.308Z,14.04
2018-06-06T01:05:02.322Z,14.05
2018-06-06T01:06:02.349Z,14.05
2018-06-06T01:07:02.361Z,14.01
2018-06-06T01:08:02.387Z,13.95
2018-06-06T01:09:02.401Z,14.04
2018-06-06T01:10:02.427Z,13.94
2018-06-06T01:11:02.455Z,13.91
2018-06-06T01:12:02.467Z,13.91
2018-06-06T01:13:02.494Z,13.93
2018-06-06T01:14:02.505Z,13.86
2018-06-06T01:15:02.532Z,13.91
2018-06-06T01:16:02.548Z,13.89
2018-06-06T01:17:02.583Z,13.97
2018-06-06T01:18:02.584Z,14.01
2018-06-06T01:19:02.614Z,13.87
2018-06-06T01:20:02.640Z,13.91
2018-06-06T01:21:02.649Z,13.86
2018-06-06T01:22:02.674Z,13.85
2018-06-06T01:23:02.689Z,13.93
2018-06-06T01:24:02.714Z,13.93
2018-06-06T01:25:02.729Z,13.97
2018-06-06T01:26:02.753Z,13.93
2018-06-06T01:27:02.771Z,13.83
2018-06-06T01:28:02.793Z,13.89
2018-06-06T01:29:02.807Z,13.86
2018-06-06T01:30:02.832Z,13.86
2018-06-06T01:31:02.870Z,13.83
2018-06-06T01:32:02.875Z,13.86
2018-06-06T01:33:02.901Z,13.83
2018-06-06T01:34:02.912Z,13.79
2018-06-06T01:35:02.938Z,13.85
2018-06-06T01:36:02.954Z,13.83
2018-06-06T01:37:02.977Z,13.83
2018-06-06T01:38:02.991Z,13.87
2018-06-06T01:39:03.016Z,13.76
2018-06-06T01:40:03.030Z,13.79
2018-06-06T01:41:03.055Z,13.82
2018-06-06T01:42:03.071Z,13.82
2018-06-06T01:43:03.094Z,13.79
2018-06-06T01:44:03.121Z,13.78
2018-06-06T01:45:03.134Z,13.78
2018-06-06T01:46:03.160Z,13.76
2018-06-06T01:47:03.173Z,13.80
2018-06-06T01:48:03.199Z,13.76
2018-06-06T01:49:03.214Z,13.82
2018-06-06T01:50:03.240Z,13.70
2018-06-06T01:51:03.266Z,13.76
2018-06-06T01:52:03.278Z,13.76
2018-06-06T01:53:03.293Z,13.76
2018-06-06T01:54:03.321Z,13.83
2018-06-06T01:55:03.344Z,13.70
2018-06-06T01:56:03.357Z,13.73
2018-06-06T01:57:03.382Z,13.65
2018-06-06T01:58:03.397Z,13.65
2018-06-06T01:59:03.430Z,13.65
2018-06-06T02:00:03.448Z,13.64
2018-06-06T02:01:03.464Z,13.64
2018-06-06T02:02:03.475Z,13.62
2018-06-06T02:03:03.501Z,13.68
2018-06-06T02:04:03.513Z,13.64
2018-06-06T02:05:03.542Z,13.71
2018-06-06T02:06:03.555Z,13.71
2018-06-06T02:07:03.583Z,13.61
2018-06-06T02:08:03.593Z,13.55
2018-06-06T02:09:03.619Z,13.55
2018-06-06T02:10:03.647Z,13.50
2018-06-06T02:11:03.661Z,13.58
2018-06-06T02:12:03.685Z,13.60
2018-06-06T02:13:03.697Z,13.61
2018-06-06T02:14:03.737Z,13.65
2018-06-06T02:15:03.740Z,13.57
2018-06-06T02:16:03.763Z,13.54
2018-06-06T02:17:03.778Z,13.54
2018-06-06T02:18:03.803Z,13.55
2018-06-06T02:19:03.817Z,13.58
2018-06-06T02:20:03.845Z,13.58
2018-06-06T02:21:03.855Z,13.52
2018-06-06T02:22:03.882Z,13.57
2018-06-06T02:23:03.896Z,13.52
2018-06-06T02:24:03.921Z,13.50
2018-06-06T02:25:03.935Z,13.52
2018-06-06T02:26:03.960Z,13.55
2018-06-06T02:27:03.987Z,13.43
2018-06-06T02:28:04.001Z,13.58
2018-06-06T02:29:04.026Z,13.50
2018-06-06T02:30:04.039Z,13.60
2018-06-06T02:31:04.064Z,13.49
2018-06-06T02:32:04.080Z,13.54
2018-06-06T02:33:04.105Z,13.50
2018-06-06T02:34:04.118Z,13.58
2018-06-06T02:35:04.143Z,13.49
2018-06-06T02:36:04.158Z,13.54
2018-06-06T02:37:04.183Z,13.55
2018-06-06T02:38:04.197Z,13.58
2018-06-06T02:39:04.223Z,13.54
2018-06-06T02:40:04.237Z,13.57
2018-06-06T02:41:04.263Z,13.60
2018-06-06T02:42:04.277Z,13.52
2018-06-06T02:43:04.315Z,13.49
2018-06-06T02:44:04.327Z,13.60
2018-06-06T02:45:04.345Z,13.57
2018-06-06T02:46:04.368Z,13.60
2018-06-06T02:47:04.380Z,13.55
2018-06-06T02:48:04.407Z,13.58
2018-06-06T02:49:04.420Z,13.55
2018-06-06T02:50:04.447Z,13.54
2018-06-06T02:51:04.459Z,13.60
2018-06-06T02:52:04.489Z,13.55
2018-06-06T02:53:04.499Z,13.55
2018-06-06T02:54:04.526Z,13.50
2018-06-06T02:55:04.538Z,13.71
2018-06-06T02:56:04.564Z,13.64
2018-06-06T02:57:04.579Z,13.61
2018-06-06T02:58:04.604Z,13.71
2018-06-06T02:59:04.618Z,13.67
2018-06-06T03:00:04.644Z,13.73
2018-06-06T03:01:04.677Z,13.57
2018-06-06T03:02:04.682Z,13.62
2018-06-06T03:03:04.711Z,13.62
2018-06-06T03:04:04.721Z,13.62
2018-06-06T03:05:04.748Z,13.61
2018-06-06T03:06:04.779Z,13.62
2018-06-06T03:07:04.796Z,13.60
2018-06-06T03:08:04.803Z,13.70
2018-06-06T03:09:04.827Z,13.68
2018-06-06T03:10:04.840Z,13.68
2018-06-06T03:11:04.867Z,13.62
2018-06-06T03:12:04.880Z,13.61
2018-06-06T03:13:04.904Z,13.58
2018-06-06T03:14:04.919Z,13.55
2018-06-06T03:15:04.945Z,13.54
2018-06-06T03:16:04.961Z,13.61
2018-06-06T03:17:04.984Z,13.55
2018-06-06T03:18:04.998Z,13.60
2018-06-06T03:19:05.026Z,13.50
2018-06-06T03:20:05.039Z,13.50
2018-06-06T03:21:05.063Z,13.60
2018-06-06T03:22:05.089Z,13.57
2018-06-06T03:23:05.102Z,13.58
2018-06-06T03:24:05.128Z,13.54
2018-06-06T03:25:05.142Z,13.54
2018-06-06T03:26:05.180Z,13.57
2018-06-06T03:27:05.181Z,13.60
2018-06-06T03:28:05.207Z,13.54
2018-06-06T03:29:05.221Z,13.57
2018-06-06T03:30:05.246Z,13.58
2018-06-06T03:31:05.266Z,13.54
2018-06-06T03:32:05.286Z,13.49
2018-06-06T03:33:05.300Z,13.58
2018-06-06T03:34:05.325Z,13.46
2018-06-06T03:35:05.338Z,13.47
2018-06-06T03:36:05.365Z,13.49
2018-06-06T03:37:05.378Z,13.47
2018-06-06T03:38:05.404Z,13.49
2018-06-06T03:39:05.430Z,13.47
2018-06-06T03:40:05.444Z,13.47
2018-06-06T03:41:05.469Z,13.47
2018-06-06T03:42:05.483Z,13.47
2018-06-06T03:43:05.512Z,13.47
2018-06-06T03:44:05.522Z,13.46
2018-06-06T03:45:05.552Z,13.45
2018-06-06T03:46:05.563Z,13.43
2018-06-06T03:47:05.588Z,13.37
2018-06-06T03:48:05.601Z,13.36
2018-06-06T03:49:05.627Z,13.36
2018-06-06T03:50:05.639Z,13.36
2018-06-06T03:51:05.667Z,13.43
2018-06-06T03:52:05.680Z,13.45
2018-06-06T03:53:05.706Z,13.45
2018-06-06T03:54:05.718Z,13.50
2018-06-06T03:55:05.745Z,13.47
2018-06-06T03:56:05.761Z,13.46
2018-06-06T03:57:05.788Z,13.42
2018-06-06T03:58:05.798Z,13.39
2018-06-06T03:59:05.822Z,13.40
2018-06-06T04:00:05.840Z,13.42
2018-06-06T04:01:05.863Z,13.43
2018-06-06T04:02:05.892Z,13.42
2018-06-06T04:03:05.902Z,13.36
2018-06-06T04:04:05.929Z,13.40
2018-06-06T04:05:05.943Z,13.43
2018-06-06T04:06:05.968Z,13.45
2018-06-06T04:07:05.983Z,13.40
2018-06-06T04:08:06.008Z,13.43
2018-06-06T04:09:06.020Z,13.42
2018-06-06T04:10:06.047Z,13.42
2018-06-06T04:11:06.060Z,13.36
2018-06-06T04:12:06.087Z,13.40
2018-06-06T04:13:06.099Z,13.40
2018-06-06T04:14:06.129Z,13.40
2018-06-06T04:15:06.146Z,13.43
2018-06-06T04:16:06.164Z,13.43
2018-06-06T04:17:06.198Z,13.49
2018-06-06T04:18:06.204Z,13.46
2018-06-06T04:19:06.217Z,13.42
2018-06-06T04:20:06.242Z,13.40
2018-06-06T04:21:06.258Z,13.36
2018-06-06T04:22:06.283Z,13.45
2018-06-06T04:23:06.309Z,13.37
2018-06-06T04:24:06.324Z,13.39
2018-06-06T04:25:06.347Z,13.43
2018-06-06T04:26:06.361Z,13.50
2018-06-06T04:27:06.387Z,13.45
2018-06-06T04:28:06.400Z,13.46
2018-06-06T04:29:06.427Z,13.50
2018-06-06T04:30:06.441Z,13.45
2018-06-06T04:31:06.467Z,13.45
2018-06-06T04:32:06.479Z,13.42
2018-06-06T04:33:06.505Z,13.50
2018-06-06T04:34:06.524Z,13.46
2018-06-06T04:35:06.546Z,13.49
2018-06-06T04:36:06.559Z,13.49
2018-06-06T04:37:06.584Z,13.54
2018-06-06T04:38:06.598Z,13.49
2018-06-06T04:39:06.624Z,13.50
2018-06-06T04:40:06.638Z,13.45
2018-06-06T04:41:06.663Z,13.47
2018-06-06T04:42:06.694Z,13.50
2018-06-06T04:43:06.709Z,13.58
2018-06-06T04:44:06.729Z,13.55
2018-06-06T04:45:06.742Z,13.52
2018-06-06T04:46:06.767Z,13.55
2018-06-06T04:47:06.785Z,13.57
2018-06-06T04:48:06.807Z,13.55
2018-06-06T04:49:06.821Z,13.58
2018-06-06T04:50:06.848Z,13.54
2018-06-06T04:51:06.872Z,13.55
2018-06-06T04:52:06.886Z,13.52
2018-06-06T04:53:06.899Z,13.55
2018-06-06T04:54:06.925Z,13.60
2018-06-06T04:55:06.939Z,13.67
2018-06-06T04:56:06.965Z,13.73
2018-06-06T04:57:06.980Z,13.62
2018-06-06T04:58:07.005Z,13.61
2018-06-06T04:59:07.029Z,13.65
2018-06-06T05:00:07.061Z,13.76
2018-06-06T05:01:07.070Z,13.71
2018-06-06T05:02:07.082Z,13.78
2018-06-06T05:03:07.109Z,13.68
2018-06-06T05:04:07.122Z,13.76
2018-06-06T05:05:07.152Z,13.79
2018-06-06T05:06:07.163Z,13.73
2018-06-06T05:07:07.188Z,13.73
2018-06-06T05:08:07.202Z,13.73
2018-06-06T05:09:07.230Z,13.86
2018-06-06T05:10:07.241Z,13.78
2018-06-06T05:11:07.266Z,13.83
2018-06-06T05:12:07.292Z,13.85
2018-06-06T05:13:07.307Z,13.85
2018-06-06T05:14:07.332Z,13.86
2018-06-06T05:15:07.345Z,13.86
2018-06-06T05:16:07.371Z,13.91
2018-06-06T05:17:07.385Z,13.95
2018-06-06T05:18:07.414Z,14.00
2018-06-06T05:19:07.425Z,14.05
2018-06-06T05:20:07.449Z,14.01
2018-06-06T05:21:07.477Z,14.05
2018-06-06T05:22:07.490Z,14.13
2018-06-06T05:23:07.516Z,14.13
2018-06-06T05:24:07.528Z,14.36
2018-06-06T05:25:07.554Z,14.56
2018-06-06T05:26:07.571Z,14.48
2018-06-06T05:27:07.595Z,14.63
2018-06-06T05:28:07.626Z,14.85
2018-06-06T05:29:07.633Z,14.96
2018-06-06T05:30:07.659Z,15.11
2018-06-06T05:31:07.684Z,15.18
2018-06-06T05:32:07.700Z,15.29
2018-06-06T05:33:07.725Z,15.37
2018-06-06T05:34:07.741Z,15.41
2018-06-06T05:35:07.764Z,15.45
2018-06-06T05:36:07.790Z,15.44
2018-06-06T05:37:07.817Z,15.48
2018-06-06T05:38:07.833Z,15.54
2018-06-06T05:39:07.855Z,15.55
2018-06-06T05:40:07.881Z,15.59
2018-06-06T05:41:07.895Z,15.60
2018-06-06T05:42:07.920Z,15.55
2018-06-06T05:43:07.946Z,15.57
2018-06-06T05:44:07.960Z,15.62
2018-06-06T05:45:07.987Z,15.57
2018-06-06T05:46:08.013Z,15.57
2018-06-06T05:47:08.028Z,15.60
2018-06-06T05:48:08.064Z,15.47
2018-06-06T05:49:08.076Z,15.60
2018-06-06T05:50:08.091Z,15.57
2018-06-06T05:51:08.117Z,15.55
2018-06-06T05:52:08.130Z,15.51
2018-06-06T05:53:08.156Z,15.51
2018-06-06T05:54:08.184Z,15.48
2018-06-06T05:55:08.208Z,15.48
2018-06-06T05:56:08.221Z,15.44
2018-06-06T05:57:08.247Z,15.47
2018-06-06T05:58:08.261Z,15.51
2018-06-06T05:59:08.289Z,15.50
2018-06-06T06:00:08.312Z,15.50
2018-06-06T06:01:08.328Z,15.51
2018-06-06T06:02:08.353Z,15.48
2018-06-06T06:03:08.378Z,15.48
2018-06-06T06:04:08.392Z,15.51
2018-06-06T06:05:08.417Z,15.54
2018-06-06T06:06:08.444Z,15.54
2018-06-06T06:07:08.459Z,15.60
2018-06-06T06:08:08.486Z,15.65
2018-06-06T06:09:08.510Z,15.66
2018-06-06T06:10:08.522Z,15.66
2018-06-06T06:11:08.547Z,15.69
2018-06-06T06:12:08.566Z,15.81
2018-06-06T06:13:08.589Z,15.84
2018-06-06T06:14:08.614Z,15.83
2018-06-06T06:15:08.626Z,15.90
2018-06-06T06:16:08.660Z,15.94
2018-06-06T06:17:08.682Z,16.02
2018-06-06T06:18:08.694Z,16.22
2018-06-06T06:19:08.718Z,16.18
2018-06-06T06:20:08.745Z,16.39
2018-06-06T06:21:08.765Z,16.40
2018-06-06T06:22:08.798Z,16.64
2018-06-06T06:23:08.809Z,16.82
2018-06-06T06:24:08.887Z,17.04
2018-06-06T06:25:08.865Z,17.23
2018-06-06T06:26:08.876Z,17.39
2018-06-06T06:27:08.901Z,17.52
2018-06-06T06:28:08.928Z,17.63
2018-06-06T06:29:08.953Z,17.79
2018-06-06T06:30:08.983Z,17.91
2018-06-06T06:31:09.005Z,17.98
2018-06-06T06:32:09.034Z,18.08
2018-06-06T06:33:09.060Z,18.16
2018-06-06T06:34:09.083Z,18.15
2018-06-06T06:35:09.113Z,18.23
2018-06-06T06:36:09.122Z,18.28
2018-06-06T06:37:09.147Z,18.39
2018-06-06T06:38:09.187Z,18.58
2018-06-06T06:39:09.200Z,18.68
2018-06-06T06:40:09.230Z,18.81
2018-06-06T06:41:09.252Z,19.09
2018-06-06T06:42:09.277Z,19.30
2018-06-06T06:43:09.303Z,19.38
2018-06-06T06:44:09.329Z,19.66
2018-06-06T06:45:09.359Z,19.77
2018-06-06T06:46:09.381Z,20.03
2018-06-06T06:47:09.424Z,20.18
2018-06-06T06:48:09.447Z,20.32
2018-06-06T06:49:09.472Z,20.52
2018-06-06T06:50:09.498Z,20.75
2018-06-06T06:51:09.523Z,20.92
2018-06-06T06:52:09.551Z,21.05
2018-06-06T06:53:09.576Z,21.22
2018-06-06T06:54:09.613Z,21.26
2018-06-06T06:55:09.639Z,21.45
2018-06-06T06:56:09.667Z,21.59
2018-06-06T06:57:09.697Z,21.77
2018-06-06T06:58:09.756Z,22.01
2018-06-06T06:59:09.756Z,22.08
2018-06-06T07:00:09.783Z,22.28
2018-06-06T07:01:09.820Z,22.31
2018-06-06T07:02:09.848Z,22.46
2018-06-06T07:03:09.872Z,22.56
2018-06-06T07:04:09.911Z,22.70
2018-06-06T07:05:09.937Z,22.78
2018-06-06T07:06:09.964Z,22.84
2018-06-06T07:07:10.002Z,22.89
2018-06-06T07:08:10.027Z,22.93
2018-06-06T07:09:10.055Z,22.99
2018-06-06T07:10:10.092Z,23.13
2018-06-06T07:11:10.118Z,23.32
2018-06-06T07:12:10.157Z,23.37
2018-06-06T07:13:10.194Z,23.39
2018-06-06T07:14:10.221Z,23.51
2018-06-06T07:15:10.247Z,23.59
2018-06-06T07:16:10.277Z,23.73
2018-06-06T07:17:10.312Z,23.74
2018-06-06T07:18:10.337Z,23.81
2018-06-06T07:19:10.420Z,23.63
2018-06-06T07:20:10.402Z,23.64
2018-06-06T07:21:10.440Z,23.77
2018-06-06T07:22:10.465Z,23.92
2018-06-06T07:23:10.504Z,23.96
2018-06-06T07:24:10.531Z,23.96
2018-06-06T07:25:10.568Z,24.06
2018-06-06T07:26:10.594Z,24.18
2018-06-06T07:27:10.633Z,24.18
2018-06-06T07:28:10.662Z,24.21
2018-06-06T07:29:10.699Z,24.28
2018-06-06T07:30:10.722Z,24.22
2018-06-06T07:31:10.764Z,24.29
2018-06-06T07:32:10.788Z,24.36
2018-06-06T07:33:10.826Z,24.48
2018-06-06T07:34:10.868Z,24.58
2018-06-06T07:35:10.891Z,24.65
2018-06-06T07:36:10.929Z,24.77
2018-06-06T07:37:10.955Z,24.88
2018-06-06T07:38:10.994Z,24.97
2018-06-06T07:39:11.031Z,24.89
2018-06-06T07:40:11.057Z,24.97
2018-06-06T07:41:11.097Z,25.07
2018-06-06T07:42:11.134Z,25.21
2018-06-06T07:43:11.161Z,25.14
2018-06-06T07:44:11.199Z,25.18
2018-06-06T07:45:11.234Z,25.00
2018-06-06T07:46:11.263Z,25.11
2018-06-06T07:47:11.304Z,25.11
2018-06-06T07:48:11.329Z,25.22
2018-06-06T07:49:11.367Z,25.30
2018-06-06T07:50:11.393Z,25.48
2018-06-06T07:51:11.431Z,25.54
2018-06-06T07:52:11.468Z,25.62
2018-06-06T07:53:11.496Z,25.76
2018-06-06T07:54:11.534Z,25.68
2018-06-06T07:55:11.571Z,25.63
2018-06-06T07:56:11.611Z,25.74
2018-06-06T07:57:11.637Z,25.83
2018-06-06T07:58:11.675Z,25.83
2018-06-06T07:59:11.714Z,25.98
2018-06-06T08:00:11.741Z,26.04
2018-06-06T08:01:11.784Z,26.15
2018-06-06T08:02:11.817Z,25.99
2018-06-06T08:03:11.855Z,25.95
2018-06-06T08:04:11.883Z,26.10
2018-06-06T08:05:11.919Z,26.24
2018-06-06T08:06:11.961Z,26.15
2018-06-06T08:07:12.030Z,26.30
2018-06-06T08:08:12.081Z,26.27
2018-06-06T08:09:12.060Z,26.19
2018-06-06T08:10:12.099Z,26.19
2018-06-06T08:11:12.150Z,26.29
2018-06-06T08:12:12.163Z,26.26
2018-06-06T08:13:12.204Z,26.36
2018-06-06T08:14:12.243Z,26.41
2018-06-06T08:15:12.280Z,26.49
2018-06-06T08:16:12.324Z,26.52
2018-06-06T08:17:12.348Z,26.59
2018-06-06T08:18:12.382Z,26.67
2018-06-06T08:19:12.419Z,26.71
2018-06-06T08:20:12.458Z,26.79
2018-06-06T08:21:12.496Z,26.85
2018-06-06T08:22:12.535Z,26.93
2018-06-06T08:23:12.562Z,26.97
2018-06-06T08:24:12.599Z,27.13
2018-06-06T08:25:12.638Z,27.23
2018-06-06T08:26:12.676Z,27.22
2018-06-06T08:27:12.715Z,27.38
2018-06-06T08:28:12.752Z,27.45
2018-06-06T08:29:12.792Z,27.45
2018-06-06T08:30:12.852Z,27.63
2018-06-06T08:31:12.857Z,27.79
2018-06-06T08:32:12.894Z,27.83
2018-06-06T08:33:12.932Z,27.68
2018-06-06T08:34:12.971Z,27.66
2018-06-06T08:35:13.009Z,27.66
2018-06-06T08:36:13.051Z,27.71
2018-06-06T08:37:13.087Z,27.67
2018-06-06T08:38:13.125Z,27.79
2018-06-06T08:39:13.166Z,27.88
2018-06-06T08:40:13.202Z,27.93
2018-06-06T08:41:13.239Z,28.01
2018-06-06T08:42:13.281Z,28.10
2018-06-06T08:43:13.317Z,28.09
2018-06-06T08:44:13.356Z,28.23
2018-06-06T08:45:13.393Z,28.15
2018-06-06T08:46:13.433Z,28.08
2018-06-06T08:47:13.471Z,28.13
2018-06-06T08:48:13.511Z,28.23
2018-06-06T08:49:13.547Z,28.34
2018-06-06T08:50:13.588Z,28.27
2018-06-06T08:51:13.627Z,28.19
2018-06-06T08:52:13.663Z,28.04
2018-06-06T08:53:13.713Z,28.23
2018-06-06T08:54:13.740Z,28.13
2018-06-06T08:55:13.777Z,28.23
2018-06-06T08:56:13.817Z,28.23
2018-06-06T08:57:13.855Z,28.22
2018-06-06T08:58:13.894Z,28.27
2018-06-06T08:59:13.932Z,28.22
2018-06-06T09:00:13.971Z,28.27
2018-06-06T09:01:14.010Z,28.22
2018-06-06T09:02:14.048Z,28.18
2018-06-06T09:03:14.085Z,28.08
2018-06-06T09:04:14.199Z,27.95
2018-06-06T09:05:14.162Z,28.00
2018-06-06T09:06:14.203Z,28.06
2018-06-06T09:07:14.240Z,28.03
2018-06-06T09:08:14.278Z,28.15
2018-06-06T09:09:14.316Z,28.20
2018-06-06T09:10:14.355Z,28.16
2018-06-06T09:11:14.398Z,28.16
2018-06-06T09:12:14.433Z,28.33
2018-06-06T09:13:14.471Z,28.31
2018-06-06T09:14:14.509Z,28.43
2018-06-06T09:15:14.547Z,28.40
2018-06-06T09:16:14.586Z,28.53
2018-06-06T09:17:14.623Z,28.55
2018-06-06T09:18:14.663Z,28.60
2018-06-06T09:19:14.713Z,28.67
2018-06-06T09:20:14.752Z,28.78
2018-06-06T09:21:14.791Z,28.71
2018-06-06T09:22:14.828Z,28.71
2018-06-06T09:23:14.868Z,28.62
2018-06-06T09:24:14.905Z,28.68
2018-06-06T09:25:14.947Z,28.62
2018-06-06T09:26:14.984Z,28.67
2018-06-06T09:27:15.036Z,28.62
2018-06-06T09:28:15.063Z,28.62
2018-06-06T09:29:15.099Z,28.70
2018-06-06T09:30:15.150Z,28.65
2018-06-06T09:31:15.186Z,28.70
2018-06-06T09:32:15.227Z,28.72
2018-06-06T09:33:15.264Z,28.80
2018-06-06T09:34:15.303Z,28.82
2018-06-06T09:35:15.341Z,28.89
2018-06-06T09:36:15.380Z,29.10
2018-06-06T09:37:15.421Z,29.05
2018-06-06T09:38:15.469Z,29.02
2018-06-06T09:39:15.508Z,28.92
2018-06-06T09:40:15.546Z,28.94
2018-06-06T09:41:15.585Z,28.94
2018-06-06T09:42:15.636Z,28.96
2018-06-06T09:43:15.663Z,29.02
2018-06-06T09:44:15.732Z,29.00
2018-06-06T09:45:15.739Z,29.13
2018-06-06T09:46:15.790Z,29.06
2018-06-06T09:47:15.828Z,29.06
2018-06-06T09:48:15.867Z,29.06
2018-06-06T09:49:15.905Z,29.20
2018-06-06T09:50:15.945Z,29.21
2018-06-06T09:51:15.982Z,29.31
2018-06-06T09:52:16.023Z,29.12
2018-06-06T09:53:16.060Z,29.13
2018-06-06T09:54:16.117Z,29.27
2018-06-06T09:55:16.148Z,29.24
2018-06-06T09:56:16.186Z,29.18
2018-06-06T09:57:16.225Z,29.28
2018-06-06T09:58:16.263Z,29.34
2018-06-06T09:59:16.302Z,29.12
2018-06-06T10:00:16.339Z,29.05
2018-06-06T10:01:16.390Z,29.05
2018-06-06T10:02:16.432Z,28.86
2018-06-06T10:03:16.468Z,29.00
2018-06-06T10:04:16.507Z,29.00
2018-06-06T10:05:16.545Z,28.93
2018-06-06T10:06:16.583Z,28.94
2018-06-06T10:07:16.623Z,29.06
2018-06-06T10:08:16.660Z,29.07
2018-06-06T10:09:16.710Z,29.13
2018-06-06T10:10:16.750Z,29.28
2018-06-06T10:11:16.788Z,29.50
2018-06-06T10:12:16.825Z,29.64
2018-06-06T10:13:16.876Z,29.80
2018-06-06T10:14:16.902Z,29.76
2018-06-06T10:15:16.943Z,29.80
2018-06-06T10:16:16.979Z,29.83
2018-06-06T10:17:17.031Z,29.89
2018-06-06T10:18:17.069Z,30.02
2018-06-06T10:19:17.106Z,30.10
2018-06-06T10:20:17.167Z,30.14
2018-06-06T10:21:17.187Z,30.43
2018-06-06T10:22:17.222Z,30.54
2018-06-06T10:23:17.277Z,30.52
2018-06-06T10:24:17.313Z,30.54
2018-06-06T10:25:17.351Z,30.70
2018-06-06T10:26:17.393Z,30.77
2018-06-06T10:27:17.428Z,30.89
2018-06-06T10:28:17.466Z,30.91
2018-06-06T10:29:17.516Z,31.14
2018-06-06T10:30:17.555Z,31.18
2018-06-06T10:31:17.593Z,31.39
2018-06-06T10:32:17.632Z,31.52
2018-06-06T10:33:17.670Z,31.45
2018-06-06T10:34:17.770Z,31.52
2018-06-06T10:35:17.760Z,31.36
2018-06-06T10:36:17.799Z,31.44
2018-06-06T10:37:17.836Z,31.54
2018-06-06T10:38:17.875Z,31.55
2018-06-06T10:39:17.928Z,31.69
2018-06-06T10:40:17.967Z,31.70
2018-06-06T10:41:18.003Z,31.89
2018-06-06T10:42:18.042Z,32.01
2018-06-06T10:43:18.091Z,32.12
2018-06-06T10:44:18.119Z,32.19
2018-06-06T10:45:18.171Z,32.20
2018-06-06T10:46:18.220Z,32.31
2018-06-06T10:47:18.247Z,32.20
2018-06-06T10:48:18.285Z,32.38
2018-06-06T10:49:18.346Z,32.45
2018-06-06T10:50:18.375Z,32.44
2018-06-06T10:51:18.412Z,32.45
2018-06-06T10:52:18.452Z,32.39
2018-06-06T10:53:18.492Z,32.48
2018-06-06T10:54:18.545Z,32.63
2018-06-06T10:55:18.581Z,32.76
2018-06-06T10:56:18.619Z,32.98
2018-06-06T10:57:18.657Z,33.09
2018-06-06T10:58:18.707Z,33.33
2018-06-06T10:59:18.745Z,33.28
2018-06-06T11:00:18.785Z,33.40
2018-06-06T11:01:18.822Z,33.40
2018-06-06T11:02:18.872Z,33.38
2018-06-06T11:03:18.912Z,33.28
2018-06-06T11:04:18.953Z,33.23
2018-06-06T11:05:18.989Z,33.09
2018-06-06T11:06:19.041Z,33.04
2018-06-06T11:07:19.078Z,33.05
2018-06-06T11:08:19.117Z,33.00
2018-06-06T11:09:19.155Z,33.03
2018-06-06T11:10:19.206Z,33.12
2018-06-06T11:12:19.282Z,33.19
2018-06-06T11:13:19.324Z,33.33
2018-06-06T11:14:19.372Z,33.53
2018-06-06T11:15:19.425Z,33.44
2018-06-06T11:16:19.451Z,33.50
2018-06-06T11:17:19.487Z,33.72
2018-06-06T11:18:19.540Z,33.69
2018-06-06T11:19:19.577Z,33.75
2018-06-06T11:20:19.616Z,33.87
2018-06-06T11:21:19.655Z,33.91
2018-06-06T11:22:19.705Z,33.77
2018-06-06T11:23:19.756Z,33.87
2018-06-06T11:24:19.785Z,33.84
2018-06-06T11:25:19.821Z,33.95
2018-06-06T11:26:19.871Z,34.00
2018-06-06T11:27:19.911Z,34.19
2018-06-06T11:28:19.948Z,34.09
2018-06-06T11:29:19.987Z,33.95
2018-06-06T11:30:20.041Z,33.88
2018-06-06T11:31:20.084Z,34.00
2018-06-06T11:32:20.115Z,34.11
2018-06-06T11:33:20.153Z,34.11
2018-06-06T11:34:20.206Z,34.04
2018-06-06T11:35:20.243Z,33.98
2018-06-06T11:37:20.670Z,34.35
2018-06-06T11:38:20.359Z,34.59
2018-06-06T11:39:20.410Z,34.63
2018-06-06T11:40:20.447Z,34.79
2018-06-06T11:41:20.489Z,34.85
2018-06-06T11:42:20.537Z,34.69
2018-06-06T11:43:20.576Z,34.60
2018-06-06T11:44:20.613Z,34.75
2018-06-06T11:45:20.652Z,34.73
2018-06-06T11:46:20.704Z,34.81
2018-06-06T11:47:20.741Z,34.79
2018-06-06T11:48:20.781Z,34.98
2018-06-06T11:49:20.818Z,34.93
2018-06-06T11:50:20.872Z,34.88
2018-06-06T11:51:20.958Z,34.81
2018-06-06T11:52:20.947Z,34.69
2018-06-06T11:53:20.985Z,34.82
2018-06-06T11:54:21.036Z,34.85
2018-06-06T11:55:21.075Z,34.93
2018-06-06T11:56:21.114Z,35.04
2018-06-06T11:57:21.151Z,35.07
2018-06-06T11:58:21.202Z,35.15
2018-06-06T11:59:21.240Z,34.89
2018-06-06T12:00:21.301Z,34.79
2018-06-06T12:01:21.318Z,34.86
2018-06-06T12:02:21.368Z,34.79
2018-06-06T12:03:21.407Z,34.94
2018-06-06T12:04:21.446Z,34.96
2018-06-06T12:05:21.484Z,35.13
2018-06-06T12:06:21.535Z,35.12
2018-06-06T12:07:21.573Z,35.18
2018-06-06T12:08:21.612Z,35.25
2018-06-06T12:09:21.653Z,35.44
2018-06-06T12:10:21.702Z,35.45
2018-06-06T12:11:21.741Z,35.25
2018-06-06T12:12:21.778Z,35.26
2018-06-06T12:13:21.816Z,35.04
2018-06-06T12:14:21.867Z,35.20
2018-06-06T12:15:21.905Z,35.16
2018-06-06T12:16:21.943Z,35.26
2018-06-06T12:17:21.983Z,35.39
2018-06-06T12:18:22.033Z,35.56
2018-06-06T12:19:22.071Z,35.63
2018-06-06T12:20:22.111Z,35.86
2018-06-06T12:21:22.148Z,35.90
2018-06-06T12:22:22.199Z,35.94
2018-06-06T12:23:22.238Z,36.03
2018-06-06T12:24:22.276Z,36.11
2018-06-06T12:25:22.315Z,36.25
2018-06-06T12:26:22.367Z,36.25
2018-06-06T12:27:22.403Z,36.09
2018-06-06T12:28:22.443Z,36.08
2018-06-06T12:29:22.482Z,35.98
2018-06-06T12:30:22.533Z,35.84
2018-06-06T12:31:22.573Z,35.75
2018-06-06T12:32:22.608Z,35.56
2018-06-06T12:33:22.659Z,35.49
2018-06-06T12:34:22.698Z,35.37
2018-06-06T12:35:22.738Z,35.61
2018-06-06T12:36:22.777Z,35.63
2018-06-06T12:37:22.861Z,35.61
2018-06-06T12:38:22.863Z,35.60
2018-06-06T12:39:22.902Z,35.50
2018-06-06T12:40:22.941Z,35.54
2018-06-06T12:41:22.991Z,35.68
2018-06-06T12:42:23.031Z,35.86
2018-06-06T12:43:23.068Z,35.69
2018-06-06T12:44:23.108Z,35.69
2018-06-06T12:45:23.145Z,35.66
2018-06-06T12:46:23.198Z,35.64
2018-06-06T12:47:23.235Z,35.59
2018-06-06T12:48:23.286Z,35.79
2018-06-06T12:49:23.314Z,35.82
2018-06-06T12:50:23.374Z,35.82
2018-06-06T12:51:23.401Z,35.79
2018-06-06T12:52:23.440Z,35.91
2018-06-06T12:53:23.478Z,35.84
2018-06-06T12:54:23.517Z,35.93